createdAt,value
2019-05-22T00:00:43.017Z,9.50
2019-05-22T00:03:15.595Z,9.10
2019-05-22T00:05:46.715Z,9.70
2019-05-22T00:08:16.840Z,9.87
2019-05-22T00:10:49.352Z,9.80
2019-05-22T00:13:22.751Z,9.77
2019-05-22T00:15:53.846Z,10.30
2019-05-22T00:18:23.298Z,8.87
2019-05-22T00:20:53.929Z,9.67
2019-05-22T00:23:23.294Z,9.23
2019-05-22T00:25:54.423Z,9.10
2019-05-22T00:28:25.496Z,9.20
2019-05-22T00:30:56.016Z,9.33
2019-05-22T00:33:26.411Z,8.20
2019-05-22T00:35:56.570Z,9.27
2019-05-22T00:38:25.418Z,9.47
2019-05-22T00:41:03.087Z,9.47
2019-05-22T00:43:38.287Z,10.47
2019-05-22T00:46:09.765Z,10.00
2019-05-22T00:48:41.566Z,10.20
2019-05-22T00:51:31.137Z,9.43
2019-05-22T00:54:35.790Z,10.33
2019-05-22T00:57:14.927Z,10.93
2019-05-22T00:59:45.851Z,9.60
2019-05-22T01:02:18.821Z,10.90
2019-05-22T01:04:49.736Z,10.50
2019-05-22T01:07:18.670Z,10.97
2019-05-22T01:09:51.822Z,10.23
2019-05-22T01:12:29.331Z,9.93
2019-05-22T01:15:03.699Z,10.27
2019-05-22T01:17:36.439Z,10.17
2019-05-22T01:20:10.687Z,10.13
2019-05-22T01:22:41.685Z,9.73
2019-05-22T01:25:14.495Z,11.17
2019-05-22T01:27:45.962Z,11.93
2019-05-22T01:30:24.212Z,11.73
2019-05-22T01:32:54.131Z,12.27
2019-05-22T01:35:29.262Z,12.83
2019-05-22T01:37:59.808Z,12.50
2019-05-22T01:40:39.501Z,11.80
2019-05-22T01:43:11.838Z,13.27
2019-05-22T01:45:52.483Z,14.80
2019-05-22T01:48:25.630Z,13.57
2019-05-22T01:51:00.989Z,14.57
2019-05-22T01:53:37.731Z,13.27
2019-05-22T01:56:11.068Z,14.37
2019-05-22T01:58:42.438Z,15.03
2019-05-22T02:01:19.834Z,15.23
2019-05-22T02:03:50.689Z,15.53
2019-05-22T02:06:22.034Z,17.00
2019-05-22T02:09:02.459Z,17.73
2019-05-22T02:11:33.828Z,17.50
2019-05-22T02:14:09.427Z,17.63
2019-05-22T02:16:55.668Z,17.70
2019-05-22T02:19:13.549Z,17.77
2019-05-22T02:21:44.155Z,17.23
2019-05-22T02:24:14.176Z,17.97
2019-05-22T02:26:45.453Z,16.30
2019-05-22T02:29:16.615Z,17.70
2019-05-22T02:31:47.571Z,17.30
2019-05-22T02:34:17.156Z,17.03
2019-05-22T02:36:47.090Z,16.97
2019-05-22T02:39:32.670Z,16.50
2019-05-22T02:42:12.242Z,15.03
2019-05-22T02:44:42.592Z,13.77
2019-05-22T02:47:19.612Z,12.27
2019-05-22T02:49:44.636Z,11.27
2019-05-22T02:52:15.489Z,10.67
2019-05-22T02:54:45.322Z,9.70
2019-05-22T02:57:14.603Z,10.80
2019-05-22T02:59:43.719Z,9.75
2019-05-22T03:02:14.386Z,9.57
2019-05-22T03:05:08.961Z,8.70
2019-05-22T03:07:40.145Z,8.57
2019-05-22T03:10:13.343Z,9.37
2019-05-22T03:12:43.390Z,8.77
2019-05-22T03:15:14.618Z,8.70
2019-05-22T03:17:45.125Z,7.80
2019-05-22T03:20:19.067Z,8.37
2019-05-22T03:23:37.981Z,8.63
2019-05-22T03:26:11.083Z,8.47
2019-05-22T03:28:41.794Z,8.60
2019-05-22T03:31:12.891Z,9.50
2019-05-22T03:33:43.348Z,9.77
2019-05-22T03:36:17.212Z,9.13
2019-05-22T03:38:47.035Z,10.03
2019-05-22T03:41:18.125Z,9.77
2019-05-22T03:43:48.676Z,10.33
2019-05-22T03:46:26.839Z,10.13
2019-05-22T03:48:55.870Z,9.87
2019-05-22T03:51:24.919Z,9.60
2019-05-22T03:53:54.418Z,9.57
2019-05-22T03:56:24.047Z,10.03
2019-05-22T03:58:55.250Z,10.77
2019-05-22T04:01:25.001Z,10.00
2019-05-22T04:03:54.765Z,11.50
2019-05-22T04:06:25.670Z,12.30
2019-05-22T04:08:55.018Z,11.53
2019-05-22T04:11:27.842Z,11.60
2019-05-22T04:13:58.700Z,11.73
2019-05-22T04:16:28.592Z,11.37
2019-05-22T04:18:58.226Z,11.47
2019-05-22T04:21:27.237Z,11.47
2019-05-22T04:23:56.823Z,11.63
2019-05-22T04:26:26.500Z,10.67
2019-05-22T04:28:55.925Z,11.00
2019-05-22T04:31:47.103Z,10.83
2019-05-22T04:34:16.123Z,11.60
2019-05-22T04:36:46.863Z,10.60
2019-05-22T04:39:21.440Z,10.80
2019-05-22T04:41:51.376Z,10.67
2019-05-22T04:44:20.400Z,9.80
2019-05-22T04:46:49.620Z,10.20
2019-05-22T04:49:19.522Z,10.33
2019-05-22T04:51:48.547Z,10.97
2019-05-22T04:54:17.832Z,9.97
2019-05-22T04:56:47.252Z,10.00
2019-05-22T04:59:16.621Z,10.93
2019-05-22T05:01:46.021Z,10.77
2019-05-22T05:04:16.018Z,10.17
2019-05-22T05:06:45.390Z,11.00
2019-05-22T05:09:14.789Z,9.83
2019-05-22T05:11:44.876Z,11.63
2019-05-22T05:14:13.953Z,10.63
2019-05-22T05:16:43.526Z,11.30
2019-05-22T05:19:12.544Z,11.27
2019-05-22T05:21:41.569Z,10.43
2019-05-22T05:24:10.839Z,10.90
2019-05-22T05:26:40.431Z,11.53
2019-05-22T05:29:31.051Z,11.17
2019-05-22T05:32:00.736Z,10.90
2019-05-22T05:35:03.124Z,10.63
2019-05-22T05:37:32.016Z,10.20
2019-05-22T05:40:37.986Z,10.73
2019-05-22T05:43:09.379Z,10.87
2019-05-22T05:45:41.684Z,11.90
2019-05-22T05:48:13.803Z,11.13
2019-05-22T05:51:03.458Z,10.60
2019-05-22T05:53:37.067Z,10.73
2019-05-22T05:56:16.641Z,11.07
2019-05-22T05:58:45.756Z,11.40
2019-05-22T06:01:27.103Z,11.30
2019-05-22T06:03:58.836Z,10.17
2019-05-22T06:07:13.556Z,10.77
2019-05-22T06:09:44.652Z,9.57
2019-05-22T06:12:16.010Z,9.37
2019-05-22T06:14:45.503Z,9.90
2019-05-22T06:17:52.348Z,10.30
2019-05-22T06:20:22.964Z,9.43
2019-05-22T06:23:46.060Z,9.70
2019-05-22T06:26:40.963Z,9.70
2019-05-22T06:29:12.038Z,9.70
2019-05-22T06:31:54.534Z,9.17
2019-05-22T06:34:23.934Z,9.23
2019-05-22T06:36:54.676Z,9.40
2019-05-22T06:39:24.175Z,9.37
2019-05-22T06:41:53.123Z,9.30
2019-05-22T06:44:36.015Z,8.17
2019-05-22T06:47:11.417Z,7.93
2019-05-22T06:49:42.323Z,7.60
2019-05-22T06:52:11.791Z,9.00
2019-05-22T06:54:40.897Z,8.70
2019-05-22T06:57:20.430Z,8.83
2019-05-22T07:00:10.823Z,7.87
2019-05-22T07:02:23.005Z,8.30
2019-05-22T07:04:52.780Z,7.90
2019-05-22T07:07:24.242Z,8.37
2019-05-22T07:09:54.792Z,7.47
2019-05-22T07:12:24.912Z,8.43
2019-05-22T07:15:30.933Z,8.03
2019-05-22T07:18:01.212Z,7.37
2019-05-22T07:20:32.498Z,8.77
2019-05-22T07:23:03.881Z,8.70
2019-05-22T07:25:35.353Z,8.67
2019-05-22T07:28:05.475Z,8.80
2019-05-22T07:30:35.112Z,8.90
2019-05-22T07:33:05.350Z,9.00
2019-05-22T07:35:56.043Z,8.77
2019-05-22T07:38:05.737Z,8.70
2019-05-22T07:40:35.633Z,9.10
2019-05-22T07:43:05.592Z,9.50
2019-05-22T07:45:36.064Z,9.50
2019-05-22T07:48:07.570Z,10.57
2019-05-22T07:50:42.065Z,10.63
2019-05-22T07:53:11.583Z,9.93
2019-05-22T07:55:41.409Z,9.97
2019-05-22T07:58:15.151Z,11.43
2019-05-22T08:00:49.998Z,11.47
2019-05-22T08:03:20.278Z,11.67
2019-05-22T08:05:54.824Z,11.07
2019-05-22T08:08:25.767Z,11.27
2019-05-22T08:10:56.678Z,11.43
2019-05-22T08:13:27.731Z,10.97
2019-05-22T08:15:57.327Z,10.80
2019-05-22T08:18:28.023Z,10.43
2019-05-22T08:20:57.059Z,10.67
2019-05-22T08:23:28.748Z,10.43
2019-05-22T08:25:59.451Z,10.93
2019-05-22T08:28:31.898Z,11.07
2019-05-22T08:31:01.571Z,10.80
2019-05-22T08:33:32.047Z,10.43
2019-05-22T08:36:03.255Z,10.57
2019-05-22T08:38:33.762Z,10.90
2019-05-22T08:41:05.547Z,11.03
2019-05-22T08:43:56.100Z,9.63
2019-05-22T08:46:07.260Z,10.40
2019-05-22T08:48:38.888Z,10.93
2019-05-22T08:51:09.398Z,9.63
2019-05-22T08:53:47.297Z,10.77
2019-05-22T08:56:09.951Z,10.73
2019-05-22T08:58:40.861Z,8.73
2019-05-22T09:01:12.020Z,8.10
2019-05-22T09:03:41.530Z,8.37
2019-05-22T09:06:10.468Z,7.60
2019-05-22T09:08:40.058Z,8.47
2019-05-22T09:11:09.108Z,7.33
2019-05-22T09:13:38.824Z,8.70
2019-05-22T09:16:08.956Z,8.07
2019-05-22T09:18:38.338Z,8.93
2019-05-22T09:21:07.951Z,9.13
2019-05-22T09:23:37.870Z,9.83
2019-05-22T09:26:08.150Z,10.83
2019-05-22T09:28:38.423Z,9.43
2019-05-22T09:31:07.405Z,10.80
2019-05-22T09:33:37.602Z,11.00
2019-05-22T09:36:08.415Z,11.57
2019-05-22T09:38:37.601Z,12.57
2019-05-22T09:41:06.703Z,11.70
2019-05-22T09:43:35.566Z,12.60
2019-05-22T09:46:05.666Z,13.30
2019-05-22T09:48:36.256Z,11.97
2019-05-22T09:51:05.327Z,12.87
2019-05-22T09:53:34.906Z,12.87
2019-05-22T09:56:04.604Z,11.17
2019-05-22T09:58:33.648Z,12.07
2019-05-22T10:01:03.378Z,10.83
2019-05-22T10:03:32.891Z,11.07
2019-05-22T10:06:02.053Z,11.17
2019-05-22T10:08:31.790Z,11.77
2019-05-22T10:11:01.430Z,11.90
2019-05-22T10:13:30.845Z,12.17
2019-05-22T10:16:00.722Z,10.80
2019-05-22T10:18:29.553Z,11.00
2019-05-22T10:20:58.566Z,10.03
2019-05-22T10:23:28.524Z,10.63
2019-05-22T10:25:57.775Z,10.30
2019-05-22T10:28:27.172Z,10.07
2019-05-22T10:30:57.520Z,10.00
2019-05-22T10:33:27.226Z,9.23
2019-05-22T10:35:57.033Z,9.80
2019-05-22T10:38:26.428Z,9.37
2019-05-22T10:40:58.909Z,8.70
2019-05-22T10:43:27.151Z,9.53
2019-05-22T10:45:56.439Z,9.20
2019-05-22T10:48:26.713Z,9.07
2019-05-22T10:50:55.585Z,9.27
2019-05-22T10:53:33.912Z,8.73
2019-05-22T10:55:56.317Z,8.70
2019-05-22T10:58:25.759Z,8.00
2019-05-22T11:00:55.006Z,8.73
2019-05-22T11:03:24.551Z,9.30
2019-05-22T11:06:06.562Z,8.13
2019-05-22T11:08:28.578Z,7.80
2019-05-22T11:10:56.116Z,8.13
2019-05-22T11:13:25.147Z,7.93
2019-05-22T11:15:54.464Z,8.07
2019-05-22T11:18:23.658Z,7.77
2019-05-22T11:20:53.552Z,6.63
2019-05-22T11:23:22.933Z,7.47
2019-05-22T11:25:52.103Z,7.70
2019-05-22T11:28:21.264Z,7.37
2019-05-22T11:30:51.075Z,7.73
2019-05-22T11:33:21.053Z,7.53
2019-05-22T11:35:50.067Z,7.40
2019-05-22T11:38:19.132Z,7.10
2019-05-22T11:40:48.110Z,8.17
2019-05-22T11:43:17.226Z,7.03
2019-05-22T11:45:46.959Z,7.23
2019-05-22T11:48:16.120Z,6.67
2019-05-22T11:50:46.350Z,7.07
2019-05-22T11:53:16.171Z,6.53
2019-05-22T11:55:46.239Z,7.90
2019-05-22T11:58:16.676Z,6.97
2019-05-22T12:00:45.946Z,6.63
2019-05-22T12:03:15.512Z,6.40
2019-05-22T12:05:45.851Z,7.07
2019-05-22T12:08:15.713Z,7.43
2019-05-22T12:10:45.298Z,7.60
2019-05-22T12:13:15.102Z,5.80
2019-05-22T12:15:44.436Z,5.73
2019-05-22T12:18:14.412Z,6.63
2019-05-22T12:20:44.103Z,6.13
2019-05-22T12:23:13.931Z,6.77
2019-05-22T12:25:43.105Z,5.80
2019-05-22T12:28:12.110Z,6.73
2019-05-22T12:30:41.456Z,6.53
2019-05-22T12:33:13.837Z,5.43
2019-05-22T12:35:42.387Z,5.33
2019-05-22T12:38:12.622Z,5.30
2019-05-22T12:40:42.326Z,5.70
2019-05-22T12:43:12.155Z,6.37
2019-05-22T12:45:41.455Z,5.07
2019-05-22T12:48:11.643Z,5.43
2019-05-22T12:50:41.582Z,5.37
2019-05-22T12:53:14.371Z,5.50
2019-05-22T12:55:43.652Z,5.50
2019-05-22T12:58:13.495Z,5.00
2019-05-22T13:00:43.481Z,5.90
2019-05-22T13:03:15.084Z,5.33
2019-05-22T13:05:44.305Z,5.30
2019-05-22T13:08:15.057Z,5.37
2019-05-22T13:10:45.046Z,4.73
2019-05-22T13:13:14.667Z,5.27
2019-05-22T13:15:44.369Z,5.17
2019-05-22T13:18:16.986Z,5.30
2019-05-22T13:20:48.199Z,5.43
2019-05-22T13:23:18.239Z,5.73
2019-05-22T13:25:47.491Z,5.03
2019-05-22T13:28:19.030Z,5.00
2019-05-22T13:30:52.659Z,5.23
2019-05-22T13:33:24.702Z,5.53
2019-05-22T13:35:54.693Z,5.87
2019-05-22T13:38:24.324Z,6.40
2019-05-22T13:40:53.957Z,6.07
2019-05-22T13:43:23.895Z,5.20
2019-05-22T13:45:53.540Z,5.07
2019-05-22T13:48:22.542Z,4.63
2019-05-22T13:50:51.731Z,4.60
2019-05-22T13:53:21.463Z,5.57
2019-05-22T13:55:51.764Z,5.60
2019-05-22T13:58:22.540Z,5.70
2019-05-22T14:00:51.656Z,5.20
2019-05-22T14:03:21.982Z,6.13
2019-05-22T14:05:52.375Z,5.07
2019-05-22T14:08:21.884Z,4.47
2019-05-22T14:10:51.891Z,5.07
2019-05-22T14:13:21.941Z,5.17
2019-05-22T14:15:56.378Z,5.73
2019-05-22T14:18:21.906Z,5.40
2019-05-22T14:20:51.182Z,5.83
2019-05-22T14:23:20.673Z,5.60
2019-05-22T14:25:49.928Z,4.20
2019-05-22T14:28:19.122Z,4.70
2019-05-22T14:30:48.243Z,4.43
2019-05-22T14:33:17.386Z,4.83
2019-05-22T14:35:49.401Z,5.43
2019-05-22T14:38:18.019Z,5.37
2019-05-22T14:40:47.278Z,4.53
2019-05-22T14:43:16.660Z,5.27
2019-05-22T14:45:46.420Z,4.50
2019-05-22T14:48:16.119Z,4.87
2019-05-22T14:50:45.342Z,4.80
2019-05-22T14:53:16.618Z,4.40
2019-05-22T14:55:47.198Z,5.53
2019-05-22T15:01:04.444Z,4.17
2019-05-22T15:03:33.616Z,4.70
2019-05-22T15:06:02.943Z,3.97
2019-05-22T15:08:32.123Z,4.03
2019-05-22T15:11:02.026Z,5.63
2019-05-22T15:13:31.981Z,4.83
2019-05-22T15:16:01.562Z,5.20
2019-05-22T15:18:31.214Z,4.03
2019-05-22T15:21:01.393Z,4.80
2019-05-22T15:23:32.352Z,4.97
2019-05-22T15:26:01.871Z,4.40
2019-05-22T15:28:32.055Z,4.73
2019-05-22T15:31:02.754Z,4.63
2019-05-22T15:33:32.830Z,4.40
2019-05-22T15:36:05.821Z,4.23
2019-05-22T15:38:33.930Z,4.30
2019-05-22T15:41:03.238Z,4.03
2019-05-22T15:43:33.114Z,3.83
2019-05-22T15:46:06.287Z,3.53
2019-05-22T15:48:36.724Z,3.17
2019-05-22T15:51:07.567Z,4.17
2019-05-22T15:53:39.237Z,4.10
2019-05-22T15:56:10.693Z,4.53
2019-05-22T15:58:43.670Z,3.97
2019-05-22T16:01:15.466Z,4.63
2019-05-22T16:03:46.747Z,2.90
2019-05-22T16:06:16.326Z,3.47
2019-05-22T16:08:46.998Z,5.53
2019-05-22T16:11:18.163Z,4.20
2019-05-22T16:13:48.964Z,4.17
2019-05-22T16:16:21.924Z,4.83
2019-05-22T16:18:53.854Z,3.90
2019-05-22T16:21:24.326Z,3.47
2019-05-22T16:23:54.825Z,3.97
2019-05-22T16:26:23.844Z,5.17
2019-05-22T16:28:53.340Z,4.73
2019-05-22T16:31:23.199Z,3.57
2019-05-22T16:33:53.567Z,3.10
2019-05-22T16:36:24.059Z,4.00
2019-05-22T16:38:54.545Z,4.33
2019-05-22T16:41:24.690Z,4.50
2019-05-22T16:43:54.462Z,4.17
2019-05-22T16:46:25.168Z,3.77
2019-05-22T16:48:54.697Z,3.70
2019-05-22T16:51:24.896Z,3.60
2019-05-22T16:53:56.632Z,3.80
2019-05-22T16:56:27.894Z,4.00
2019-05-22T16:58:58.128Z,3.60
2019-05-22T17:01:28.495Z,4.13
2019-05-22T17:04:02.749Z,4.17
2019-05-22T17:06:32.267Z,3.37
2019-05-22T17:09:04.116Z,3.83
2019-05-22T17:11:33.886Z,3.03
2019-05-22T17:14:04.498Z,2.83
2019-05-22T17:16:37.084Z,3.37
2019-05-22T17:19:25.227Z,2.90
2019-05-22T17:21:38.397Z,3.57
2019-05-22T17:24:10.456Z,3.03
2019-05-22T17:26:39.876Z,3.23
2019-05-22T17:29:10.902Z,3.50
2019-05-22T17:31:40.212Z,3.47
2019-05-22T17:34:28.767Z,3.37
2019-05-22T17:36:58.087Z,3.43
2019-05-22T17:39:28.960Z,3.20
2019-05-22T17:41:58.438Z,3.00
2019-05-22T17:44:28.535Z,3.00
2019-05-22T17:46:58.814Z,2.80
2019-05-22T17:49:28.443Z,2.33
2019-05-22T17:51:57.825Z,3.10
2019-05-22T17:54:27.363Z,3.10
2019-05-22T17:56:56.819Z,2.87
2019-05-22T17:59:26.191Z,3.60
2019-05-22T18:01:56.045Z,2.73
2019-05-22T18:04:25.794Z,3.10
2019-05-22T18:06:55.196Z,2.97
2019-05-22T18:09:25.314Z,2.33
2019-05-22T18:11:55.128Z,2.23
2019-05-22T18:14:24.020Z,2.20
2019-05-22T18:16:53.194Z,2.47
2019-05-22T18:19:22.530Z,2.27
2019-05-22T18:21:51.911Z,2.30
2019-05-22T18:24:21.004Z,2.40
2019-05-22T18:26:49.972Z,2.10
2019-05-22T18:29:18.876Z,2.13
2019-05-22T18:31:47.767Z,2.27
2019-05-22T18:34:16.913Z,2.23
2019-05-22T18:36:45.835Z,2.97
2019-05-22T18:39:16.430Z,2.40
2019-05-22T18:41:45.333Z,2.33
2019-05-22T18:44:14.698Z,2.23
2019-05-22T18:46:43.740Z,2.83
2019-05-22T18:49:13.212Z,2.70
2019-05-22T18:51:42.450Z,2.30
2019-05-22T18:54:11.888Z,2.30
2019-05-22T18:56:40.841Z,2.40
2019-05-22T18:59:10.008Z,2.30
2019-05-22T19:01:39.347Z,2.90
2019-05-22T19:04:08.412Z,2.50
2019-05-22T19:06:37.442Z,2.97
2019-05-22T19:09:09.080Z,2.60
2019-05-22T19:11:38.263Z,2.73
2019-05-22T19:14:07.412Z,2.70
2019-05-22T19:16:37.102Z,3.47
2019-05-22T19:19:06.129Z,2.80
2019-05-22T19:21:35.127Z,2.77
2019-05-22T19:24:04.180Z,3.10
2019-05-22T19:26:33.257Z,3.00
2019-05-22T19:29:03.622Z,3.27
2019-05-22T19:31:33.023Z,2.83
2019-05-22T19:34:02.024Z,2.70
2019-05-22T19:36:30.890Z,3.10
2019-05-22T19:39:00.670Z,3.00
2019-05-22T19:41:30.809Z,3.00
2019-05-22T19:44:00.094Z,2.83
2019-05-22T19:46:29.535Z,2.80
2019-05-22T19:48:59.906Z,2.90
2019-05-22T19:51:31.251Z,2.63
2019-05-22T19:54:00.872Z,3.00
2019-05-22T19:56:30.041Z,2.97
2019-05-22T19:58:59.348Z,2.93
2019-05-22T20:01:30.811Z,2.80
2019-05-22T20:04:00.811Z,2.47
2019-05-22T20:06:30.951Z,2.47
2019-05-22T20:09:00.860Z,2.50
2019-05-22T20:11:30.073Z,2.10
2019-05-22T20:14:00.073Z,2.40
2019-05-22T20:16:29.458Z,2.50
2019-05-22T20:18:59.058Z,2.60
2019-05-22T20:24:15.426Z,2.13
2019-05-22T20:26:44.577Z,2.33
2019-05-22T20:29:15.263Z,2.30
2019-05-22T20:31:44.669Z,2.23
2019-05-22T20:34:14.351Z,2.60
2019-05-22T20:36:43.835Z,2.20
2019-05-22T20:39:14.998Z,2.37
2019-05-22T20:41:44.516Z,2.20
2019-05-22T20:44:13.559Z,2.40
2019-05-22T20:46:44.129Z,2.67
2019-05-22T20:49:14.324Z,2.70
2019-05-22T20:51:43.776Z,2.43
2019-05-22T20:54:15.508Z,2.50
2019-05-22T20:56:46.748Z,2.57
2019-05-22T20:59:17.038Z,2.47
2019-05-22T21:01:46.939Z,2.07
2019-05-22T21:04:19.835Z,2.63
2019-05-22T21:06:59.786Z,2.03
2019-05-22T21:09:28.101Z,2.27
2019-05-22T21:11:58.181Z,2.43
2019-05-22T21:14:27.379Z,1.93
2019-05-22T21:16:56.814Z,2.50
2019-05-22T21:19:27.175Z,2.63
2019-05-22T21:21:57.799Z,2.37
2019-05-22T21:24:27.790Z,2.37
2019-05-22T21:26:57.029Z,2.57
2019-05-22T21:29:26.089Z,2.83
2019-05-22T21:31:55.378Z,2.90
2019-05-22T21:34:24.767Z,3.20
2019-05-22T21:36:53.698Z,2.83
2019-05-22T21:39:22.686Z,2.43
2019-05-22T21:41:53.154Z,3.20
2019-05-22T21:44:22.341Z,2.40
2019-05-22T21:46:51.789Z,2.37
2019-05-22T21:49:20.787Z,2.80
2019-05-22T21:51:49.784Z,2.70
2019-05-22T21:54:19.011Z,2.57
2019-05-22T21:56:47.884Z,2.40
2019-05-22T21:59:17.805Z,3.10
2019-05-22T22:01:52.474Z,2.43
2019-05-22T22:04:26.828Z,2.70
2019-05-22T22:06:56.341Z,2.90
2019-05-22T22:09:26.919Z,2.70
2019-05-22T22:11:57.198Z,2.53
2019-05-22T22:14:26.743Z,2.83
2019-05-22T22:16:56.292Z,3.03
2019-05-22T22:19:25.378Z,3.17
2019-05-22T22:21:55.136Z,2.97
2019-05-22T22:24:24.737Z,3.00
2019-05-22T22:26:55.397Z,3.20
2019-05-22T22:29:24.407Z,2.97
2019-05-22T22:31:54.985Z,3.33
2019-05-22T22:34:36.493Z,3.03
2019-05-22T22:37:06.784Z,2.97
2019-05-22T22:39:37.686Z,3.47
2019-05-22T22:42:08.387Z,2.90
2019-05-22T22:44:37.366Z,2.97
2019-05-22T22:47:13.565Z,3.27
2019-05-22T22:49:43.737Z,3.00
2019-05-22T22:52:14.967Z,2.73
2019-05-22T22:54:45.418Z,3.53
2019-05-22T22:57:14.623Z,3.20
2019-05-22T22:59:43.914Z,3.20
2019-05-22T23:02:18.235Z,3.40
2019-05-22T23:04:48.513Z,3.40
2019-05-22T23:07:19.381Z,3.17
2019-05-22T23:09:49.450Z,3.33
2019-05-22T23:12:20.713Z,3.23
2019-05-22T23:14:54.830Z,2.73
2019-05-22T23:17:25.514Z,3.10
2019-05-22T23:19:53.568Z,2.90
2019-05-22T23:22:27.343Z,3.07
2019-05-22T23:24:57.870Z,2.63
2019-05-22T23:27:29.209Z,3.30
2019-05-22T23:30:00.291Z,3.40
2019-05-22T23:32:29.312Z,2.77
2019-05-22T23:34:59.455Z,2.57
2019-05-22T23:37:28.556Z,3.00
2019-05-22T23:39:59.238Z,2.90
2019-05-22T23:42:36.151Z,3.20
2019-05-22T23:45:14.733Z,3.43
2019-05-22T23:47:59.894Z,3.10
2019-05-22T23:50:30.803Z,2.77
2019-05-22T23:53:00.988Z,3.13
2019-05-22T23:55:30.402Z,3.20
2019-05-22T23:57:59.827Z,2.60
